sensor_id;sensor_type;location;lat;lon;timestamp;pressure;altitude;pressure_sealevel;temperature;humidity
39769;BME280;38939;47.824;14.642;2022-08-21T00:00:38;96859.25;;;17.89;91.92
39769;BME280;38939;47.824;14.642;2022-08-21T00:01:44;96862.69;;;17.89;91.92
39769;BME280;38939;47.824;14.642;2022-08-21T00:02:49;96859.25;;;17.89;91.91
39769;BME280;38939;47.824;14.642;2022-08-21T00:03:52;96856.06;;;17.87;91.70
39769;BME280;38939;47.824;14.642;2022-08-21T00:04:53;96853.44;;;17.87;91.79
39769;BME280;38939;47.824;14.642;2022-08-21T00:05:58;96843.94;;;17.86;91.71
39769;BME280;38939;47.824;14.642;2022-08-21T00:07:00;96855.03;;;17.88;91.60
39769;BME280;38939;47.824;14.642;2022-08-21T00:08:02;96858.47;;;17.88;91.85
39769;BME280;38939;47.824;14.642;2022-08-21T00:09:06;96858.47;;;17.88;91.73
39769;BME280;38939;47.824;14.642;2022-08-21T00:10:09;96856.63;;;17.89;91.56
39769;BME280;38939;47.824;14.642;2022-08-21T00:11:11;96853.97;;;17.89;91.56
39769;BME280;38939;47.824;14.642;2022-08-21T00:12:13;96852.13;;;17.89;91.48
39769;BME280;38939;47.824;14.642;2022-08-21T00:13:15;96853.97;;;17.89;91.42
39769;BME280;38939;47.824;14.642;2022-08-21T00:14:19;96848.69;;;17.89;91.46
39769;BME280;38939;47.824;14.642;2022-08-21T00:15:23;96854.22;;;17.87;91.38
39769;BME280;38939;47.824;14.642;2022-08-21T00:16:25;96851.56;;;17.87;91.58
39769;BME280;38939;47.824;14.642;2022-08-21T00:17:27;96853.44;;;17.87;91.46
39769;BME280;38939;47.824;14.642;2022-08-21T00:18:29;96840.47;;;17.85;91.50
39769;BME280;38939;47.824;14.642;2022-08-21T00:19:31;96850.78;;;17.87;91.50
39769;BME280;38939;47.824;14.642;2022-08-21T00:20:34;96844.47;;;17.88;91.69
39769;BME280;38939;47.824;14.642;2022-08-21T00:21:36;96848.66;;;17.84;91.38
39769;BME280;38939;47.824;14.642;2022-08-21T00:22:38;96843.84;;;17.80;91.51
39769;BME280;38939;47.824;14.642;2022-08-21T00:23:40;96840.41;;;17.80;91.40
39769;BME280;38939;47.824;14.642;2022-08-21T00:24:42;96840.66;;;17.78;91.60
39769;BME280;38939;47.824;14.642;2022-08-21T00:25:45;96838.81;;;17.79;91.43
39769;BME280;38939;47.824;14.642;2022-08-21T00:26:47;96838.81;;;17.79;91.30
39769;BME280;38939;47.824;14.642;2022-08-21T00:27:48;96837.78;;;17.80;91.59
39769;BME280;38939;47.824;14.642;2022-08-21T00:28:51;96838.81;;;17.79;91.67
39769;BME280;38939;47.824;14.642;2022-08-21T00:29:52;96840.16;;;17.82;91.48
39769;BME280;38939;47.824;14.642;2022-08-21T00:30:55;96833.28;;;17.80;91.42
39769;BME280;38939;47.824;14.642;2022-08-21T00:31:58;96834.88;;;17.82;91.46
39769;BME280;38939;47.824;14.642;2022-08-21T00:33:00;96833.81;;;17.83;91.51
39769;BME280;38939;47.824;14.642;2022-08-21T00:34:03;96832.00;;;17.83;91.68
39769;BME280;38939;47.824;14.642;2022-08-21T00:35:05;96827.56;;;17.84;91.65
39769;BME280;38939;47.824;14.642;2022-08-21T00:36:08;96829.91;;;17.85;91.42
39769;BME280;38939;47.824;14.642;2022-08-21T00:37:10;96829.91;;;17.85;91.51
39769;BME280;38939;47.824;14.642;2022-08-21T00:38:11;96830.41;;;17.82;91.39
39769;BME280;38939;47.824;14.642;2022-08-21T00:39:14;96838.25;;;17.77;91.46
39769;BME280;38939;47.824;14.642;2022-08-21T00:40:18;96827.69;;;17.77;91.37
39769;BME280;38939;47.824;14.642;2022-08-21T00:41:20;96828.75;;;17.76;91.89
39769;BME280;38939;47.824;14.642;2022-08-21T00:42:39;96828.53;;;17.77;91.85
39769;BME280;38939;47.824;14.642;2022-08-21T00:43:41;96828.53;;;17.77;91.99
39769;BME280;38939;47.824;14.642;2022-08-21T00:44:44;96830.09;;;17.78;91.97
39769;BME280;38939;47.824;14.642;2022-08-21T00:45:46;96825.06;;;17.77;91.90
39769;BME280;38939;47.824;14.642;2022-08-21T00:46:48;96827.47;;;17.78;92.01
39769;BME280;38939;47.824;14.642;2022-08-21T00:47:50;96835.38;;;17.78;92.01
39769;BME280;38939;47.824;14.642;2022-08-21T00:48:52;96832.72;;;17.78;92.23
39769;BME280;38939;47.824;14.642;2022-08-21T00:49:59;96829.31;;;17.78;92.04
39769;BME280;38939;47.824;14.642;2022-08-21T00:51:04;96824.78;;;17.73;92.02
39769;BME280;38939;47.824;14.642;2022-08-21T00:52:09;96824.22;;;17.71;92.20
39769;BME280;38939;47.824;14.642;2022-08-21T00:53:11;96822.63;;;17.70;92.63
39769;BME280;38939;47.824;14.642;2022-08-21T00:54:13;96819.19;;;17.70;92.89
39769;BME280;38939;47.824;14.642;2022-08-21T00:55:20;96828.69;;;17.71;92.59
39769;BME280;38939;47.824;14.642;2022-08-21T00:56:24;96825.81;;;17.72;92.68
39769;BME280;38939;47.824;14.642;2022-08-21T00:57:30;96824.22;;;17.71;92.56
39769;BME280;38939;47.824;14.642;2022-08-21T00:58:34;96828.69;;;17.71;92.40
39769;BME280;38939;47.824;14.642;2022-08-21T00:59:38;96830.06;;;17.73;92.27
39769;BME280;38939;47.824;14.642;2022-08-21T01:00:41;96829.78;;;17.75;92.14
39769;BME280;38939;47.824;14.642;2022-08-21T01:01:43;96825.81;;;17.72;91.85
39769;BME280;38939;47.824;14.642;2022-08-21T01:02:45;96826.59;;;17.73;91.81
39769;BME280;38939;47.824;14.642;2022-08-21T01:03:47;96822.94;;;17.74;91.73
39769;BME280;38939;47.824;14.642;2022-08-21T01:04:50;96824.50;;;17.75;92.00
39769;BME280;38939;47.824;14.642;2022-08-21T01:05:52;96818.69;;;17.73;91.61
39769;BME280;38939;47.824;14.642;2022-08-21T01:06:54;96815.81;;;17.74;91.62
39769;BME280;38939;47.824;14.642;2022-08-21T01:07:56;96818.44;;;17.74;91.79
39769;BME280;38939;47.824;14.642;2022-08-21T01:08:58;96820.06;;;17.75;91.78
39769;BME280;38939;47.824;14.642;2022-08-21T01:10:00;96820.06;;;17.75;91.85
39769;BME280;38939;47.824;14.642;2022-08-21T01:11:03;96819.53;;;17.78;91.47
39769;BME280;38939;47.824;14.642;2022-08-21T01:12:05;96811.06;;;17.76;91.65
39769;BME280;38939;47.824;14.642;2022-08-21T01:13:08;96816.34;;;17.76;91.48
39769;BME280;38939;47.824;14.642;2022-08-21T01:14:11;96813.72;;;17.76;91.67
39769;BME280;38939;47.824;14.642;2022-08-21T01:15:14;96817.41;;;17.75;91.58
39769;BME280;38939;47.824;14.642;2022-08-21T01:16:17;96807.66;;;17.76;91.78
39769;BME280;38939;47.824;14.642;2022-08-21T01:17:20;96807.88;;;17.74;91.96
39769;BME280;38939;47.824;14.642;2022-08-21T01:18:22;96811.59;;;17.73;91.97
39769;BME280;38939;47.824;14.642;2022-08-21T01:19:25;96818.69;;;17.73;92.20
39769;BME280;38939;47.824;14.642;2022-08-21T01:20:28;96813.66;;;17.71;91.93
39769;BME280;38939;47.824;14.642;2022-08-21T01:21:33;96814.47;;;17.72;91.77
39769;BME280;38939;47.824;14.642;2022-08-21T01:22:35;96805.72;;;17.71;91.53
39769;BME280;38939;47.824;14.642;2022-08-21T01:23:39;96805.72;;;17.71;91.67
39769;BME280;38939;47.824;14.642;2022-08-21T01:24:41;96806.78;;;17.70;91.64
39769;BME280;38939;47.824;14.642;2022-08-21T01:25:43;96810.19;;;17.66;91.88
39769;BME280;38939;47.824;14.642;2022-08-21T01:26:45;96807.56;;;17.66;91.83
39769;BME280;38939;47.824;14.642;2022-08-21T01:27:47;96800.66;;;17.65;92.01
39769;BME280;38939;47.824;14.642;2022-08-21T01:28:54;96798.81;;;17.65;91.97
39769;BME280;38939;47.824;14.642;2022-08-21T01:30:01;96812.00;;;17.65;92.07
39769;BME280;38939;47.824;14.642;2022-08-21T01:31:07;96807.28;;;17.67;91.91
39769;BME280;38939;47.824;14.642;2022-08-21T01:32:12;96799.38;;;17.67;91.95
39769;BME280;38939;47.824;14.642;2022-08-21T01:33:14;96795.16;;;17.66;91.73
39769;BME280;38939;47.824;14.642;2022-08-21T01:34:16;96797.53;;;17.68;91.67
39769;BME280;38939;47.824;14.642;2022-08-21T01:35:19;96793.28;;;17.67;91.39
39769;BME280;38939;47.824;14.642;2022-08-21T01:36:22;96802.00;;;17.67;91.57
39769;BME280;38939;47.824;14.642;2022-08-21T01:37:24;96794.63;;;17.69;91.82
39769;BME280;38939;47.824;14.642;2022-08-21T01:38:26;96799.91;;;17.69;91.74
39769;BME280;38939;47.824;14.642;2022-08-21T01:39:29;96801.53;;;17.70;91.64
39769;BME280;38939;47.824;14.642;2022-08-21T01:40:31;96809.19;;;17.72;91.60
39769;BME280;38939;47.824;14.642;2022-08-21T01:41:33;96794.94;;;17.73;91.51
39769;BME280;38939;47.824;14.642;2022-08-21T01:42:35;96797.34;;;17.74;91.29
39769;BME280;38939;47.824;14.642;2022-08-21T01:43:36;96793.66;;;17.75;91.51
39769;BME280;38939;47.824;14.642;2022-08-21T01:44:40;96798.94;;;17.75;91.51
39769;BME280;38939;47.824;14.642;2022-08-21T01:45:42;96797.63;;;17.78;91.59
39769;BME280;38939;47.824;14.642;2022-08-21T01:46:44;96795.78;;;17.78;91.49
39769;BME280;38939;47.824;14.642;2022-08-21T01:47:46;96793.38;;;17.77;91.28
39769;BME280;38939;47.824;14.642;2022-08-21T01:48:48;96794.22;;;17.77;91.21
39769;BME280;38939;47.824;14.642;2022-08-21T01:49:50;96789.97;;;17.76;91.42
39769;BME280;38939;47.824;14.642;2022-08-21T01:50:52;96790.19;;;17.75;91.53
39769;BME280;38939;47.824;14.642;2022-08-21T01:51:57;96788.88;;;17.72;91.57
39769;BME280;38939;47.824;14.642;2022-08-21T01:52:59;96784.91;;;17.70;91.83
39769;BME280;38939;47.824;14.642;2022-08-21T01:54:01;96789.09;;;17.71;91.90
39769;BME280;38939;47.824;14.642;2022-08-21T01:55:03;96785.19;;;17.73;91.77
39769;BME280;38939;47.824;14.642;2022-08-21T01:56:07;96785.75;;;17.75;91.63
39769;BME280;38939;47.824;14.642;2022-08-21T01:57:13;96785.47;;;17.77;91.47
39769;BME280;38939;47.824;14.642;2022-08-21T01:58:15;96792.34;;;17.78;91.46
39769;BME280;38939;47.824;14.642;2022-08-21T01:59:18;96789.47;;;17.79;91.45
39769;BME280;38939;47.824;14.642;2022-08-21T02:00:21;96800.56;;;17.82;91.52
39769;BME280;38939;47.824;14.642;2022-08-21T02:01:24;96791.59;;;17.83;91.12
39769;BME280;38939;47.824;14.642;2022-08-21T02:02:26;96798.72;;;17.82;91.33
39769;BME280;38939;47.824;14.642;2022-08-21T02:03:28;96799.50;;;17.83;91.16
39769;BME280;38939;47.824;14.642;2022-08-21T02:04:36;96786.31;;;17.83;90.99
39769;BME280;38939;47.824;14.642;2022-08-21T02:05:38;96785.31;;;17.84;90.81
39769;BME280;38939;47.824;14.642;2022-08-21T02:06:40;96781.84;;;17.83;91.21
39769;BME280;38939;47.824;14.642;2022-08-21T02:07:43;96777.59;;;17.82;90.97
39769;BME280;38939;47.824;14.642;2022-08-21T02:08:45;96778.09;;;17.79;91.58
39769;BME280;38939;47.824;14.642;2022-08-21T02:09:47;96784.13;;;17.74;91.48
39769;BME280;38939;47.824;14.642;2022-08-21T02:10:51;96782.81;;;17.72;91.68
39769;BME280;38939;47.824;14.642;2022-08-21T02:11:53;96772.25;;;17.72;91.83
39769;BME280;38939;47.824;14.642;2022-08-21T02:12:56;96772.00;;;17.73;91.57
39769;BME280;38939;47.824;14.642;2022-08-21T02:13:58;96766.72;;;17.73;91.60
39769;BME280;38939;47.824;14.642;2022-08-21T02:15:00;96767.50;;;17.74;91.57
39769;BME280;38939;47.824;14.642;2022-08-21T02:16:02;96765.66;;;17.74;92.08
39769;BME280;38939;47.824;14.642;2022-08-21T02:17:04;96761.44;;;17.73;91.65
39769;BME280;38939;47.824;14.642;2022-08-21T02:18:10;96766.72;;;17.73;91.52
39769;BME280;38939;47.824;14.642;2022-08-21T02:19:12;96759.06;;;17.72;91.84
39769;BME280;38939;47.824;14.642;2022-08-21T02:20:16;96755.59;;;17.71;91.94
39769;BME280;38939;47.824;14.642;2022-08-21T02:21:18;96760.88;;;17.71;91.82
39769;BME280;38939;47.824;14.642;2022-08-21T02:22:20;96762.47;;;17.72;91.73
39769;BME280;38939;47.824;14.642;2022-08-21T02:23:22;96755.88;;;17.75;91.86
39769;BME280;38939;47.824;14.642;2022-08-21T02:24:27;96756.72;;;17.75;91.43
39769;BME280;38939;47.824;14.642;2022-08-21T02:25:29;96753.81;;;17.77;91.59
39769;BME280;38939;47.824;14.642;2022-08-21T02:26:31;96760.63;;;17.73;91.70
39769;BME280;38939;47.824;14.642;2022-08-21T02:27:41;96761.88;;;17.65;92.10
39769;BME280;38939;47.824;14.642;2022-08-21T02:28:43;96759.75;;;17.62;92.41
39769;BME280;38939;47.824;14.642;2022-08-21T02:29:45;96757.59;;;17.59;92.42
39769;BME280;38939;47.824;14.642;2022-08-21T02:30:47;96765.78;;;17.57;92.63
39769;BME280;38939;47.824;14.642;2022-08-21T02:31:49;96762.09;;;17.58;92.59
39769;BME280;38939;47.824;14.642;2022-08-21T02:32:51;96764.47;;;17.60;92.61
39769;BME280;38939;47.824;14.642;2022-08-21T02:33:53;96757.91;;;17.63;92.38
39769;BME280;38939;47.824;14.642;2022-08-21T02:34:55;96758.44;;;17.65;92.24
39769;BME280;38939;47.824;14.642;2022-08-21T02:35:57;96760.84;;;17.66;92.28
39769;BME280;38939;47.824;14.642;2022-08-21T02:37:00;96753.47;;;17.68;92.17
39769;BME280;38939;47.824;14.642;2022-08-21T02:38:06;96760.31;;;17.69;91.79
39769;BME280;38939;47.824;14.642;2022-08-21T02:39:13;96754.50;;;17.67;91.99
39769;BME280;38939;47.824;14.642;2022-08-21T02:40:16;96755.03;;;17.69;91.90
39769;BME280;38939;47.824;14.642;2022-08-21T02:41:19;96747.94;;;17.70;91.85
39769;BME280;38939;47.824;14.642;2022-08-21T02:42:22;96743.22;;;17.72;91.81
39769;BME280;38939;47.824;14.642;2022-08-21T02:43:24;96742.97;;;17.73;91.79
39769;BME280;38939;47.824;14.642;2022-08-21T02:44:27;96739.28;;;17.74;91.64
39769;BME280;38939;47.824;14.642;2022-08-21T02:45:35;96749.03;;;17.74;91.72
39769;BME280;38939;47.824;14.642;2022-08-21T02:46:37;96741.91;;;17.74;91.68
39769;BME280;38939;47.824;14.642;2022-08-21T02:47:39;96749.03;;;17.74;91.46
39769;BME280;38939;47.824;14.642;2022-08-21T02:48:41;96745.34;;;17.75;91.15
39769;BME280;38939;47.824;14.642;2022-08-21T02:49:43;96742.44;;;17.76;91.06
39769;BME280;38939;47.824;14.642;2022-08-21T02:50:51;96736.13;;;17.77;91.26
39769;BME280;38939;47.824;14.642;2022-08-21T02:51:53;96738.78;;;17.77;91.04
39769;BME280;38939;47.824;14.642;2022-08-21T02:52:55;96737.97;;;17.77;90.83
39769;BME280;38939;47.824;14.642;2022-08-21T02:53:57;96749.06;;;17.79;90.66
39769;BME280;38939;47.824;14.642;2022-08-21T02:55:00;96745.63;;;17.78;90.54
39769;BME280;38939;47.824;14.642;2022-08-21T02:56:03;96742.44;;;17.76;90.76
39769;BME280;38939;47.824;14.642;2022-08-21T02:57:05;96748.78;;;17.75;90.88
39769;BME280;38939;47.824;14.642;2022-08-21T02:58:07;96750.06;;;17.73;91.25
39769;BME280;38939;47.824;14.642;2022-08-21T02:59:09;96749.53;;;17.71;91.65
39769;BME280;38939;47.824;14.642;2022-08-21T03:00:11;96749.75;;;17.64;92.10
39769;BME280;38939;47.824;14.642;2022-08-21T03:01:14;96740.97;;;17.58;92.36
39769;BME280;38939;47.824;14.642;2022-08-21T03:02:17;96748.09;;;17.58;92.47
39769;BME280;38939;47.824;14.642;2022-08-21T03:03:18;96748.66;;;17.60;92.50
39769;BME280;38939;47.824;14.642;2022-08-21T03:04:22;96743.91;;;17.62;92.28
39769;BME280;38939;47.824;14.642;2022-08-21T03:05:24;96744.47;;;17.64;91.85
39769;BME280;38939;47.824;14.642;2022-08-21T03:06:27;96744.75;;;17.68;91.99
39769;BME280;38939;47.824;14.642;2022-08-21T03:07:30;96741.06;;;17.69;91.88
39769;BME280;38939;47.824;14.642;2022-08-21T03:08:32;96749.53;;;17.71;91.77
39769;BME280;38939;47.824;14.642;2022-08-21T03:09:34;96748.25;;;17.73;91.49
39769;BME280;38939;47.824;14.642;2022-08-21T03:10:39;96743.75;;;17.74;91.34
39769;BME280;38939;47.824;14.642;2022-08-21T03:11:41;96740.88;;;17.75;91.24
39769;BME280;38939;47.824;14.642;2022-08-21T03:12:43;96738.25;;;17.75;91.17
39769;BME280;38939;47.824;14.642;2022-08-21T03:13:45;96739.81;;;17.76;91.06
39769;BME280;38939;47.824;14.642;2022-08-21T03:14:47;96739.56;;;17.78;90.93
39769;BME280;38939;47.824;14.642;2022-08-21T03:15:49;96730.59;;;17.79;91.08
39769;BME280;38939;47.824;14.642;2022-08-21T03:16:51;96737.41;;;17.75;90.84
39769;BME280;38939;47.824;14.642;2022-08-21T03:17:53;96731.84;;;17.71;91.31
39769;BME280;38939;47.824;14.642;2022-08-21T03:18:55;96736.56;;;17.69;91.30
39769;BME280;38939;47.824;14.642;2022-08-21T03:19:58;96736.56;;;17.69;91.50
39769;BME280;38939;47.824;14.642;2022-08-21T03:21:00;96731.56;;;17.68;91.73
39769;BME280;38939;47.824;14.642;2022-08-21T03:22:02;96739.22;;;17.69;91.65
39769;BME280;38939;47.824;14.642;2022-08-21T03:23:04;96732.13;;;17.70;91.90
39769;BME280;38939;47.824;14.642;2022-08-21T03:24:13;96732.91;;;17.70;91.94
39769;BME280;38939;47.824;14.642;2022-08-21T03:25:18;96738.66;;;17.67;91.66
39769;BME280;38939;47.824;14.642;2022-08-21T03:26:23;96731.28;;;17.69;92.01
39769;BME280;38939;47.824;14.642;2022-08-21T03:27:28;96731.28;;;17.69;91.70
39769;BME280;38939;47.824;14.642;2022-08-21T03:28:30;96731.28;;;17.69;91.86
39769;BME280;38939;47.824;14.642;2022-08-21T03:29:32;96735.00;;;17.68;91.93
39769;BME280;38939;47.824;14.642;2022-08-21T03:30:34;96730.75;;;17.67;91.97
39769;BME280;38939;47.824;14.642;2022-08-21T03:31:36;96740.53;;;17.67;92.28
39769;BME280;38939;47.824;14.642;2022-08-21T03:32:38;96732.34;;;17.68;91.99
39769;BME280;38939;47.824;14.642;2022-08-21T03:33:40;96741.06;;;17.69;91.94
39769;BME280;38939;47.824;14.642;2022-08-21T03:34:42;96731.81;;;17.66;91.86
39769;BME280;38939;47.824;14.642;2022-08-21T03:35:44;96741.28;;;17.62;92.64
39769;BME280;38939;47.824;14.642;2022-08-21T03:36:47;96742.31;;;17.61;92.56
39769;BME280;38939;47.824;14.642;2022-08-21T03:37:50;96738.88;;;17.60;92.62
39769;BME280;38939;47.824;14.642;2022-08-21T03:38:52;96737.84;;;17.62;92.44
39769;BME280;38939;47.824;14.642;2022-08-21T03:39:54;96734.41;;;17.61;92.32
39769;BME280;38939;47.824;14.642;2022-08-21T03:40:56;96737.84;;;17.62;92.23
39769;BME280;38939;47.824;14.642;2022-08-21T03:41:58;96737.59;;;17.63;92.02
39769;BME280;38939;47.824;14.642;2022-08-21T03:43:01;96737.59;;;17.63;91.71
39769;BME280;38939;47.824;14.642;2022-08-21T03:44:03;96728.38;;;17.66;91.84
39769;BME280;38939;47.824;14.642;2022-08-21T03:45:05;96735.00;;;17.68;91.79
39769;BME280;38939;47.824;14.642;2022-08-21T03:46:07;96732.91;;;17.70;91.64
39769;BME280;38939;47.824;14.642;2022-08-21T03:47:09;96726.00;;;17.69;91.51
39769;BME280;38939;47.824;14.642;2022-08-21T03:48:11;96731.28;;;17.69;91.54
39769;BME280;38939;47.824;14.642;2022-08-21T03:49:13;96739.50;;;17.68;91.60
39769;BME280;38939;47.824;14.642;2022-08-21T03:50:15;96744.75;;;17.68;91.44
39769;BME280;38939;47.824;14.642;2022-08-21T03:51:18;96747.41;;;17.68;91.33
39769;BME280;38939;47.824;14.642;2022-08-21T03:52:20;96749.22;;;17.67;91.27
39769;BME280;38939;47.824;14.642;2022-08-21T03:53:22;96745.56;;;17.68;91.30
39769;BME280;38939;47.824;14.642;2022-08-21T03:54:25;96744.50;;;17.69;91.13
39769;BME280;38939;47.824;14.642;2022-08-21T03:55:29;96748.72;;;17.70;91.11
39769;BME280;38939;47.824;14.642;2022-08-21T03:56:31;96751.38;;;17.70;91.48
39769;BME280;38939;47.824;14.642;2022-08-21T03:57:33;96748.97;;;17.69;91.47
39769;BME280;38939;47.824;14.642;2022-08-21T03:58:35;96756.09;;;17.68;91.53
39769;BME280;38939;47.824;14.642;2022-08-21T03:59:37;96755.31;;;17.68;91.30
39769;BME280;38939;47.824;14.642;2022-08-21T04:00:40;96755.03;;;17.69;91.39
39769;BME280;38939;47.824;14.642;2022-08-21T04:01:52;96758.44;;;17.65;91.58
39769;BME280;38939;47.824;14.642;2022-08-21T04:02:54;96755.50;;;17.61;91.79
39769;BME280;38939;47.824;14.642;2022-08-21T04:03:56;96760.78;;;17.61;91.52
39769;BME280;38939;47.824;14.642;2022-08-21T04:04:58;96765.81;;;17.63;91.73
39769;BME280;38939;47.824;14.642;2022-08-21T04:06:00;96758.69;;;17.63;91.70
39769;BME280;38939;47.824;14.642;2022-08-21T04:07:02;96759.50;;;17.64;91.51
39769;BME280;38939;47.824;14.642;2022-08-21T04:08:05;96753.16;;;17.65;91.45
39769;BME280;38939;47.824;14.642;2022-08-21T04:09:07;96759.22;;;17.65;91.38
39769;BME280;38939;47.824;14.642;2022-08-21T04:10:10;96758.19;;;17.66;91.53
39769;BME280;38939;47.824;14.642;2022-08-21T04:11:12;96759.78;;;17.67;91.43
39769;BME280;38939;47.824;14.642;2022-08-21T04:12:16;96758.75;;;17.68;91.35
39769;BME280;38939;47.824;14.642;2022-08-21T04:13:17;96758.50;;;17.70;91.60
39769;BME280;38939;47.824;14.642;2022-08-21T04:14:20;96757.41;;;17.66;91.82
39769;BME280;38939;47.824;14.642;2022-08-21T04:15:22;96761.88;;;17.65;91.86
39769;BME280;38939;47.824;14.642;2022-08-21T04:16:24;96758.19;;;17.66;92.08
39769;BME280;38939;47.824;14.642;2022-08-21T04:17:27;96764.28;;;17.67;91.66
39769;BME280;38939;47.824;14.642;2022-08-21T04:18:29;96758.19;;;17.66;91.57
39769;BME280;38939;47.824;14.642;2022-08-21T04:19:31;96764.81;;;17.69;91.58
39769;BME280;38939;47.824;14.642;2022-08-21T04:20:33;96763.78;;;17.70;91.41
39769;BME280;38939;47.824;14.642;2022-08-21T04:21:35;96752.41;;;17.69;91.58
39769;BME280;38939;47.824;14.642;2022-08-21T04:22:40;96756.91;;;17.69;91.57
39769;BME280;38939;47.824;14.642;2022-08-21T04:23:41;96765.06;;;17.67;91.83
39769;BME280;38939;47.824;14.642;2022-08-21T04:24:43;96766.66;;;17.68;91.67
39769;BME280;38939;47.824;14.642;2022-08-21T04:25:46;96764.81;;;17.69;91.62
39769;BME280;38939;47.824;14.642;2022-08-21T04:26:48;96769.53;;;17.67;91.84
39769;BME280;38939;47.824;14.642;2022-08-21T04:27:50;96775.63;;;17.67;92.05
39769;BME280;38939;47.824;14.642;2022-08-21T04:28:52;96774.81;;;17.67;91.82
39769;BME280;38939;47.824;14.642;2022-08-21T04:29:54;96771.41;;;17.66;91.89
39769;BME280;38939;47.824;14.642;2022-08-21T04:30:56;96776.44;;;17.68;91.60
39769;BME280;38939;47.824;14.642;2022-08-21T04:31:58;96770.09;;;17.69;91.93
39769;BME280;38939;47.824;14.642;2022-08-21T04:33:01;96772.50;;;17.70;91.94
39769;BME280;38939;47.824;14.642;2022-08-21T04:34:03;96771.44;;;17.71;91.86
39769;BME280;38939;47.824;14.642;2022-08-21T04:35:07;96777.28;;;17.73;91.66
39769;BME280;38939;47.824;14.642;2022-08-21T04:36:10;96770.94;;;17.74;92.00
39769;BME280;38939;47.824;14.642;2022-08-21T04:37:12;96770.94;;;17.74;91.67
39769;BME280;38939;47.824;14.642;2022-08-21T04:38:14;96775.19;;;17.75;91.60
39769;BME280;38939;47.824;14.642;2022-08-21T04:39:16;96777.81;;;17.75;91.60
39769;BME280;38939;47.824;14.642;2022-08-21T04:40:19;96772.78;;;17.74;91.52
39769;BME280;38939;47.824;14.642;2022-08-21T04:41:21;96780.47;;;17.75;91.64
39769;BME280;38939;47.824;14.642;2022-08-21T04:42:28;96780.47;;;17.75;91.57
39769;BME280;38939;47.824;14.642;2022-08-21T04:43:30;96781.00;;;17.77;91.78
39769;BME280;38939;47.824;14.642;2022-08-21T04:44:32;96777.00;;;17.75;91.82
39769;BME280;38939;47.824;14.642;2022-08-21T04:46:36;96786.78;;;17.74;91.87
39769;BME280;38939;47.824;14.642;2022-08-21T04:47:38;96784.69;;;17.76;91.58
39769;BME280;38939;47.824;14.642;2022-08-21T04:48:53;96782.03;;;17.76;91.85
39769;BME280;38939;47.824;14.642;2022-08-21T04:49:55;96783.09;;;17.75;92.02
39769;BME280;38939;47.824;14.642;2022-08-21T04:50:59;96784.06;;;17.69;91.87
39769;BME280;38939;47.824;14.642;2022-08-21T04:52:02;96784.06;;;17.69;92.23
39769;BME280;38939;47.824;14.642;2022-08-21T04:53:08;96787.25;;;17.71;92.31
39769;BME280;38939;47.824;14.642;2022-08-21T04:54:17;96786.22;;;17.72;92.02
39769;BME280;38939;47.824;14.642;2022-08-21T04:55:19;96780.16;;;17.72;92.26
39769;BME280;38939;47.824;14.642;2022-08-21T04:56:26;96780.09;;;17.67;92.23
39769;BME280;38939;47.824;14.642;2022-08-21T04:57:30;96781.72;;;17.68;92.41
39769;BME280;38939;47.824;14.642;2022-08-21T04:58:49;96796.00;;;17.72;92.20
39769;BME280;38939;47.824;14.642;2022-08-21T04:59:52;96785.19;;;17.73;92.02
39769;BME280;38939;47.824;14.642;2022-08-21T05:00:54;96791.25;;;17.74;92.13
39769;BME280;38939;47.824;14.642;2022-08-21T05:01:57;96793.13;;;17.73;92.20
39769;BME280;38939;47.824;14.642;2022-08-21T05:02:59;96790.19;;;17.75;91.94
39769;BME280;38939;47.824;14.642;2022-08-21T05:04:02;96791.81;;;17.76;91.96
39769;BME280;38939;47.824;14.642;2022-08-21T05:05:06;96790.75;;;17.77;91.78
39769;BME280;38939;47.824;14.642;2022-08-21T05:06:09;96797.63;;;17.78;91.71
39769;BME280;38939;47.824;14.642;2022-08-21T05:07:21;96793.16;;;17.78;91.91
39769;BME280;38939;47.824;14.642;2022-08-21T05:08:43;96789.47;;;17.79;91.87
39769;BME280;38939;47.824;14.642;2022-08-21T05:09:46;96784.97;;;17.80;91.85
39769;BME280;38939;47.824;14.642;2022-08-21T05:10:48;96796.56;;;17.79;91.88
39769;BME280;38939;47.824;14.642;2022-08-21T05:11:50;96800.03;;;17.79;91.82
39769;BME280;38939;47.824;14.642;2022-08-21T05:12:53;96797.69;;;17.83;91.81
39769;BME280;38939;47.824;14.642;2022-08-21T05:13:55;96796.66;;;17.84;91.99
39769;BME280;38939;47.824;14.642;2022-08-21T05:14:57;96793.78;;;17.86;91.76
39769;BME280;38939;47.824;14.642;2022-08-21T05:15:59;96792.97;;;17.85;91.92
39769;BME280;38939;47.824;14.642;2022-08-21T05:17:01;96795.59;;;17.85;91.83
39769;BME280;38939;47.824;14.642;2022-08-21T05:18:03;96796.09;;;17.82;92.15
39769;BME280;38939;47.824;14.642;2022-08-21T05:19:05;96795.28;;;17.82;92.31
39769;BME280;38939;47.824;14.642;2022-08-21T05:20:08;96800.34;;;17.83;92.42
39769;BME280;38939;47.824;14.642;2022-08-21T05:21:10;96803.22;;;17.82;92.34
39769;BME280;38939;47.824;14.642;2022-08-21T05:22:18;96794.75;;;17.79;92.32
39769;BME280;38939;47.824;14.642;2022-08-21T05:23:20;96797.94;;;17.82;92.39
39769;BME280;38939;47.824;14.642;2022-08-21T05:24:22;96804.00;;;17.82;92.27
39769;BME280;38939;47.824;14.642;2022-08-21T05:25:24;96803.22;;;17.82;92.71
39769;BME280;38939;47.824;14.642;2022-08-21T05:26:28;96804.78;;;17.83;92.59
39769;BME280;38939;47.824;14.642;2022-08-21T05:27:31;96795.88;;;17.84;92.51
39769;BME280;38939;47.824;14.642;2022-08-21T05:28:34;96791.38;;;17.84;92.76
39769;BME280;38939;47.824;14.642;2022-08-21T05:29:36;96798.72;;;17.82;92.56
39769;BME280;38939;47.824;14.642;2022-08-21T05:30:38;96811.94;;;17.82;92.31